sensor_id;sensor_type;location;lat;lon;timestamp;pressure;altitude;pressure_sealevel;temperature;humidity
7824;BME280;3957;48.61947800;9.05303100;2023-11-21T00:00:22;95479.19;;;4.82;100.00
7824;BME280;3957;48.61947800;9.05303100;2023-11-21T00:01:23;95476.72;;;4.81;100.00
7824;BME280;3957;48.61947800;9.05303100;2023-11-21T00:02:25;95480.91;;;4.90;100.00
7824;BME280;3957;48.61947800;9.05303100;2023-11-21T00:03:28;95473.13;;;4.88;100.00
7824;BME280;3957;48.61947800;9.05303100;2023-11-21T00:04:30;95479.91;;;4.91;100.00
7824;BME280;3957;48.61947800;9.05303100;2023-11-21T00:05:31;95476.06;;;4.93;100.00
7824;BME280;3957;48.61947800;9.05303100;2023-11-21T00:06:33;95471.84;;;4.99;100.00
7824;BME280;3957;48.61947800;9.05303100;2023-11-21T00:07:38;95477.59;;;5.18;100.00
7824;BME280;3957;48.61947800;9.05303100;2023-11-21T00:08:40;95471.94;;;5.06;100.00
7824;BME280;3957;48.61947800;9.05303100;2023-11-21T00:09:41;95472.75;;;5.06;100.00
7824;BME280;3957;48.61947800;9.05303100;2023-11-21T00:10:43;95478.63;;;5.02;100.00
7824;BME280;3957;48.61947800;9.05303100;2023-11-21T00:11:45;95474.13;;;5.02;100.00
7824;BME280;3957;48.61947800;9.05303100;2023-11-21T00:12:47;95473.31;;;5.02;100.00
7824;BME280;3957;48.61947800;9.05303100;2023-11-21T00:13:50;95480.09;;;5.04;100.00
7824;BME280;3957;48.61947800;9.05303100;2023-11-21T00:14:51;95468.53;;;4.97;100.00
7824;BME280;3957;48.61947800;9.05303100;2023-11-21T00:15:56;95475.41;;;5.06;100.00
7824;BME280;3957;48.61947800;9.05303100;2023-11-21T00:16:58;95474.97;;;5.03;100.00
7824;BME280;3957;48.61947800;9.05303100;2023-11-21T00:18:00;95473.59;;;5.07;100.00
7824;BME280;3957;48.61947800;9.05303100;2023-11-21T00:19:02;95480.63;;;5.15;100.00
7824;BME280;3957;48.61947800;9.05303100;2023-11-21T00:20:05;95472.66;;;5.15;100.00
7824;BME280;3957;48.61947800;9.05303100;2023-11-21T00:21:08;95474.88;;;5.11;100.00
7824;BME280;3957;48.61947800;9.05303100;2023-11-21T00:22:10;95473.59;;;5.07;100.00
7824;BME280;3957;48.61947800;9.05303100;2023-11-21T00:23:12;95472.38;;;5.09;100.00
7824;BME280;3957;48.61947800;9.05303100;2023-11-21T00:24:13;95466.91;;;5.11;100.00
7824;BME280;3957;48.61947800;9.05303100;2023-11-21T00:25:15;95470.84;;;5.15;100.00
7824;BME280;3957;48.61947800;9.05303100;2023-11-21T00:26:19;95472.03;;;5.13;100.00
7824;BME280;3957;48.61947800;9.05303100;2023-11-21T00:27:30;95472.84;;;5.13;100.00
7824;BME280;3957;48.61947800;9.05303100;2023-11-21T00:28:32;95469.19;;;5.14;100.00
7824;BME280;3957;48.61947800;9.05303100;2023-11-21T00:29:33;95476.59;;;5.19;100.00
7824;BME280;3957;48.61947800;9.05303100;2023-11-21T00:30:35;95468.53;;;5.12;100.00
7824;BME280;3957;48.61947800;9.05303100;2023-11-21T00:31:36;95466.25;;;5.09;100.00
7824;BME280;3957;48.61947800;9.05303100;2023-11-21T00:32:39;95470.38;;;5.11;100.00
7824;BME280;3957;48.61947800;9.05303100;2023-11-21T00:33:41;95470.91;;;5.22;100.00
7824;BME280;3957;48.61947800;9.05303100;2023-11-21T00:34:43;95475.31;;;5.15;100.00
7824;BME280;3957;48.61947800;9.05303100;2023-11-21T00:35:45;95466.81;;;5.19;100.00
7824;BME280;3957;48.61947800;9.05303100;2023-11-21T00:36:46;95469.28;;;5.21;100.00
7824;BME280;3957;48.61947800;9.05303100;2023-11-21T00:37:48;95470.75;;;5.23;100.00
7824;BME280;3957;48.61947800;9.05303100;2023-11-21T00:38:51;95468.59;;;5.34;100.00
7824;BME280;3957;48.61947800;9.05303100;2023-11-21T00:39:52;95475.75;;;5.33;100.00
7824;BME280;3957;48.61947800;9.05303100;2023-11-21T00:40:54;95469.09;;;5.22;100.00
7824;BME280;3957;48.61947800;9.05303100;2023-11-21T00:41:57;95460.47;;;5.20;100.00
7824;BME280;3957;48.61947800;9.05303100;2023-11-21T00:42:59;95463.13;;;5.20;100.00
7824;BME280;3957;48.61947800;9.05303100;2023-11-21T00:44:00;95469.09;;;5.22;100.00
7824;BME280;3957;48.61947800;9.05303100;2023-11-21T00:45:02;95465.50;;;5.30;100.00
7824;BME280;3957;48.61947800;9.05303100;2023-11-21T00:46:05;95470.97;;;5.28;100.00
7824;BME280;3957;48.61947800;9.05303100;2023-11-21T00:47:09;95474.59;;;5.21;100.00
7824;BME280;3957;48.61947800;9.05303100;2023-11-21T00:48:10;95473.56;;;5.22;100.00
7824;BME280;3957;48.61947800;9.05303100;2023-11-21T00:49:13;95466.88;;;5.26;100.00
7824;BME280;3957;48.61947800;9.05303100;2023-11-21T00:50:15;95473.53;;;5.37;100.00
7824;BME280;3957;48.61947800;9.05303100;2023-11-21T00:51:17;95473.09;;;5.33;100.00
7824;BME280;3957;48.61947800;9.05303100;2023-11-21T00:52:18;95471.25;;;5.34;100.00
7824;BME280;3957;48.61947800;9.05303100;2023-11-21T00:53:20;95470.59;;;5.32;100.00
7824;BME280;3957;48.61947800;9.05303100;2023-11-21T00:54:22;95464.41;;;5.24;100.00
7824;BME280;3957;48.61947800;9.05303100;2023-11-21T00:55:24;95470.38;;;5.26;100.00
7824;BME280;3957;48.61947800;9.05303100;2023-11-21T00:56:26;95473.91;;;5.34;100.00
7824;BME280;3957;48.61947800;9.05303100;2023-11-21T00:57:28;95469.78;;;5.31;100.00
7824;BME280;3957;48.61947800;9.05303100;2023-11-21T00:58:30;95472.59;;;5.44;100.00
7824;BME280;3957;48.61947800;9.05303100;2023-11-21T00:59:32;95476.38;;;5.35;100.00
7824;BME280;3957;48.61947800;9.05303100;2023-11-21T01:00:33;95472.53;;;5.38;100.00
7824;BME280;3957;48.61947800;9.05303100;2023-11-21T01:01:35;95484.34;;;5.35;100.00
7824;BME280;3957;48.61947800;9.05303100;2023-11-21T01:02:37;95471.06;;;5.35;100.00
7824;BME280;3957;48.61947800;9.05303100;2023-11-21T01:03:38;95467.78;;;5.33;100.00
7824;BME280;3957;48.61947800;9.05303100;2023-11-21T01:04:40;95472.25;;;5.33;100.00
7824;BME280;3957;48.61947800;9.05303100;2023-11-21T01:05:41;95469.41;;;5.34;100.00
7824;BME280;3957;48.61947800;9.05303100;2023-11-21T01:06:43;95470.78;;;5.30;100.00
7824;BME280;3957;48.61947800;9.05303100;2023-11-21T01:07:44;95465.25;;;5.25;100.00
7824;BME280;3957;48.61947800;9.05303100;2023-11-21T01:08:46;95461.56;;;5.26;100.00
7824;BME280;3957;48.61947800;9.05303100;2023-11-21T01:09:48;95465.44;;;5.23;100.00
7824;BME280;3957;48.61947800;9.05303100;2023-11-21T01:10:49;95458.91;;;5.26;100.00
7824;BME280;3957;48.61947800;9.05303100;2023-11-21T01:11:51;95456.56;;;5.16;100.00
7824;BME280;3957;48.61947800;9.05303100;2023-11-21T01:12:53;95456.81;;;5.21;100.00
7824;BME280;3957;48.61947800;9.05303100;2023-11-21T01:13:55;95449.69;;;5.22;100.00
7824;BME280;3957;48.61947800;9.05303100;2023-11-21T01:14:56;95458.56;;;5.29;100.00
7824;BME280;3957;48.61947800;9.05303100;2023-11-21T01:16:01;95448.16;;;5.13;100.00
7824;BME280;3957;48.61947800;9.05303100;2023-11-21T01:17:03;95448.69;;;5.08;100.00
7824;BME280;3957;48.61947800;9.05303100;2023-11-21T01:18:06;95454.19;;;5.06;100.00
7824;BME280;3957;48.61947800;9.05303100;2023-11-21T01:19:07;95453.66;;;5.11;100.00
7824;BME280;3957;48.61947800;9.05303100;2023-11-21T01:20:11;95452.38;;;5.07;100.00
7824;BME280;3957;48.61947800;9.05303100;2023-11-21T01:21:15;95460.22;;;5.15;100.00
7824;BME280;3957;48.61947800;9.05303100;2023-11-21T01:22:16;95452.44;;;5.14;100.00
7824;BME280;3957;48.61947800;9.05303100;2023-11-21T01:23:19;95456.38;;;5.18;100.00
7824;BME280;3957;48.61947800;9.05303100;2023-11-21T01:24:21;95449.06;;;5.05;100.00
7824;BME280;3957;48.61947800;9.05303100;2023-11-21T01:25:22;95461.06;;;5.01;100.00
7824;BME280;3957;48.61947800;9.05303100;2023-11-21T01:26:24;95452.00;;;4.95;100.00
7824;BME280;3957;48.61947800;9.05303100;2023-11-21T01:27:25;95442.31;;;5.02;100.00
7824;BME280;3957;48.61947800;9.05303100;2023-11-21T01:28:28;95445.25;;;5.07;100.00
7824;BME280;3957;48.61947800;9.05303100;2023-11-21T01:29:29;95452.28;;;5.00;100.00
7824;BME280;3957;48.61947800;9.05303100;2023-11-21T01:30:31;95453.75;;;5.03;100.00
7824;BME280;3957;48.61947800;9.05303100;2023-11-21T01:31:33;95455.03;;;4.92;100.00
7824;BME280;3957;48.61947800;9.05303100;2023-11-21T01:32:36;95455.75;;;4.86;100.00
7824;BME280;3957;48.61947800;9.05303100;2023-11-21T01:33:37;95451.94;;;4.88;100.00
7824;BME280;3957;48.61947800;9.05303100;2023-11-21T01:34:39;95449.84;;;4.84;100.00
7824;BME280;3957;48.61947800;9.05303100;2023-11-21T01:35:41;95456.59;;;4.86;100.00
7824;BME280;3957;48.61947800;9.05303100;2023-11-21T01:36:45;95455.22;;;4.90;100.00
7824;BME280;3957;48.61947800;9.05303100;2023-11-21T01:37:46;95459.88;;;4.88;100.00
7824;BME280;3957;48.61947800;9.05303100;2023-11-21T01:38:49;95451.56;;;4.91;100.00
7824;BME280;3957;48.61947800;9.05303100;2023-11-21T01:39:51;95452.81;;;4.96;100.00
7824;BME280;3957;48.61947800;9.05303100;2023-11-21T01:40:52;95453.09;;;5.01;100.00
7824;BME280;3957;48.61947800;9.05303100;2023-11-21T01:41:54;95445.72;;;4.96;100.00
7824;BME280;3957;48.61947800;9.05303100;2023-11-21T01:42:55;95456.22;;;5.04;100.00
7824;BME280;3957;48.61947800;9.05303100;2023-11-21T01:43:57;95453.38;;;5.06;100.00
7824;BME280;3957;48.61947800;9.05303100;2023-11-21T01:44:59;95445.25;;;5.07;100.00
7824;BME280;3957;48.61947800;9.05303100;2023-11-21T01:46:01;95446.16;;;5.00;100.00
7824;BME280;3957;48.61947800;9.05303100;2023-11-21T01:47:02;95449.47;;;5.02;100.00
7824;BME280;3957;48.61947800;9.05303100;2023-11-21T01:48:06;95449.72;;;5.07;100.00
7824;BME280;3957;48.61947800;9.05303100;2023-11-21T01:49:10;95441.50;;;5.02;100.00
7824;BME280;3957;48.61947800;9.05303100;2023-11-21T01:50:16;95439.84;;;5.01;100.00
7824;BME280;3957;48.61947800;9.05303100;2023-11-21T01:51:19;95441.31;;;5.03;100.00
7824;BME280;3957;48.61947800;9.05303100;2023-11-21T01:52:20;95443.97;;;5.03;100.00
7824;BME280;3957;48.61947800;9.05303100;2023-11-21T01:53:26;95442.31;;;5.02;100.00
7824;BME280;3957;48.61947800;9.05303100;2023-11-21T01:54:28;95448.69;;;5.08;100.00
7824;BME280;3957;48.61947800;9.05303100;2023-11-21T01:55:33;95440.84;;;5.00;100.00
7824;BME280;3957;48.61947800;9.05303100;2023-11-21T01:56:35;95437.75;;;4.96;100.00
7824;BME280;3957;48.61947800;9.05303100;2023-11-21T01:57:37;95445.53;;;4.98;100.00
7824;BME280;3957;48.61947800;9.05303100;2023-11-21T01:58:41;95445.97;;;5.01;100.00
7824;BME280;3957;48.61947800;9.05303100;2023-11-21T01:59:44;95443.06;;;4.96;100.00
7824;BME280;3957;48.61947800;9.05303100;2023-11-21T02:00:47;95440.41;;;4.96;100.00
7824;BME280;3957;48.61947800;9.05303100;2023-11-21T02:01:52;95443.59;;;4.91;100.00
7824;BME280;3957;48.61947800;9.05303100;2023-11-21T02:02:53;95447.47;;;4.89;100.00
7824;BME280;3957;48.61947800;9.05303100;2023-11-21T02:03:55;95443.97;;;4.88;100.00
7824;BME280;3957;48.61947800;9.05303100;2023-11-21T02:04:57;95450.28;;;4.87;100.00
7824;BME280;3957;48.61947800;9.05303100;2023-11-21T02:05:58;95449.00;;;4.83;100.00
7824;BME280;3957;48.61947800;9.05303100;2023-11-21T02:07:00;95438.75;;;4.80;100.00
7824;BME280;3957;48.61947800;9.05303100;2023-11-21T02:08:02;95443.25;;;4.80;100.00
7824;BME280;3957;48.61947800;9.05303100;2023-11-21T02:09:04;95437.31;;;4.77;100.00
7824;BME280;3957;48.61947800;9.05303100;2023-11-21T02:10:07;95446.72;;;4.80;100.00
7824;BME280;3957;48.61947800;9.05303100;2023-11-21T02:11:09;95448.47;;;4.73;100.00
7824;BME280;3957;48.61947800;9.05303100;2023-11-21T02:12:10;95448.28;;;4.74;100.00
7824;BME280;3957;48.61947800;9.05303100;2023-11-21T02:13:13;95452.22;;;4.79;100.00
7824;BME280;3957;48.61947800;9.05303100;2023-11-21T02:14:16;95446.91;;;4.79;100.00
7824;BME280;3957;48.61947800;9.05303100;2023-11-21T02:15:22;95440.03;;;4.84;100.00
7824;BME280;3957;48.61947800;9.05303100;2023-11-21T02:16:24;95445.72;;;4.81;100.00
7824;BME280;3957;48.61947800;9.05303100;2023-11-21T02:17:26;95446.53;;;4.82;100.00
7824;BME280;3957;48.61947800;9.05303100;2023-11-21T02:18:28;95446.72;;;4.80;100.00
7824;BME280;3957;48.61947800;9.05303100;2023-11-21T02:19:31;95444.63;;;4.75;100.00
7824;BME280;3957;48.61947800;9.05303100;2023-11-21T02:20:33;95443.53;;;4.85;100.00
7824;BME280;3957;48.61947800;9.05303100;2023-11-21T02:21:37;95444.72;;;4.82;100.00
7824;BME280;3957;48.61947800;9.05303100;2023-11-21T02:22:51;95446.81;;;4.87;100.00
7824;BME280;3957;48.61947800;9.05303100;2023-11-21T02:24:00;95443.16;;;4.88;100.00
7824;BME280;3957;48.61947800;9.05303100;2023-11-21T02:25:02;95445.06;;;4.94;100.00
7824;BME280;3957;48.61947800;9.05303100;2023-11-21T02:26:04;95451.56;;;4.91;100.00
7824;BME280;3957;48.61947800;9.05303100;2023-11-21T02:27:06;95446.44;;;4.90;100.00
7824;BME280;3957;48.61947800;9.05303100;2023-11-21T02:28:08;95444.81;;;4.89;100.00
7824;BME280;3957;48.61947800;9.05303100;2023-11-21T02:29:10;95438.47;;;4.90;100.00
7824;BME280;3957;48.61947800;9.05303100;2023-11-21T02:30:15;95440.59;;;4.94;100.00
7824;BME280;3957;48.61947800;9.05303100;2023-11-21T02:31:17;95446.91;;;4.93;100.00
7824;BME280;3957;48.61947800;9.05303100;2023-11-21T02:32:20;95434.66;;;4.92;100.00
7824;BME280;3957;48.61947800;9.05303100;2023-11-21T02:33:24;95433.28;;;4.97;100.00
7824;BME280;3957;48.61947800;9.05303100;2023-11-21T02:34:26;95439.03;;;5.00;100.00
7824;BME280;3957;48.61947800;9.05303100;2023-11-21T02:35:28;95434.94;;;4.83;100.00
7824;BME280;3957;48.61947800;9.05303100;2023-11-21T02:36:29;95434.47;;;4.79;100.00
7824;BME280;3957;48.61947800;9.05303100;2023-11-21T02:37:31;95438.34;;;4.76;100.00
7824;BME280;3957;48.61947800;9.05303100;2023-11-21T02:38:32;95437.31;;;4.77;100.00
7824;BME280;3957;48.61947800;9.05303100;2023-11-21T02:39:35;95440.31;;;4.74;100.00
7824;BME280;3957;48.61947800;9.05303100;2023-11-21T02:40:36;95439.50;;;4.74;100.00
7824;BME280;3957;48.61947800;9.05303100;2023-11-21T02:41:37;95431.56;;;4.74;100.00
7824;BME280;3957;48.61947800;9.05303100;2023-11-21T02:42:40;95435.94;;;4.67;100.00
7824;BME280;3957;48.61947800;9.05303100;2023-11-21T02:43:41;95437.47;;;4.61;100.00
7824;BME280;3957;48.61947800;9.05303100;2023-11-21T02:44:43;95439.41;;;4.52;100.00
7824;BME280;3957;48.61947800;9.05303100;2023-11-21T02:45:45;95431.56;;;4.59;100.00
7824;BME280;3957;48.61947800;9.05303100;2023-11-21T02:46:46;95441.34;;;4.58;100.00
7824;BME280;3957;48.61947800;9.05303100;2023-11-21T02:47:48;95438.94;;;4.64;100.00
7824;BME280;3957;48.61947800;9.05303100;2023-11-21T02:48:54;95438.13;;;4.63;100.00
7824;BME280;3957;48.61947800;9.05303100;2023-11-21T02:49:56;95428.81;;;4.67;100.00
7824;BME280;3957;48.61947800;9.05303100;2023-11-21T02:50:59;95436.41;;;4.70;100.00
7824;BME280;3957;48.61947800;9.05303100;2023-11-21T02:52:00;95431.19;;;4.77;100.00
7824;BME280;3957;48.61947800;9.05303100;2023-11-21T02:53:03;95433.38;;;4.73;100.00
7824;BME280;3957;48.61947800;9.05303100;2023-11-21T02:54:07;95428.72;;;4.75;100.00
7824;BME280;3957;48.61947800;9.05303100;2023-11-21T02:55:09;95424.88;;;4.78;100.00
7824;BME280;3957;48.61947800;9.05303100;2023-11-21T02:56:11;95429.00;;;4.81;100.00
7824;BME280;3957;48.61947800;9.05303100;2023-11-21T02:57:12;95428.44;;;4.85;100.00
7824;BME280;3957;48.61947800;9.05303100;2023-11-21T02:58:14;95425.31;;;4.82;100.00
7824;BME280;3957;48.61947800;9.05303100;2023-11-21T02:59:17;95419.84;;;4.83;100.00
7824;BME280;3957;48.61947800;9.05303100;2023-11-21T03:00:19;95421.13;;;4.87;100.00
7824;BME280;3957;48.61947800;9.05303100;2023-11-21T03:01:21;95423.31;;;4.84;100.00
7824;BME280;3957;48.61947800;9.05303100;2023-11-21T03:02:22;95426.34;;;4.81;100.00
7824;BME280;3957;48.61947800;9.05303100;2023-11-21T03:03:24;95429.63;;;4.83;100.00
7824;BME280;3957;48.61947800;9.05303100;2023-11-21T03:04:26;95432.19;;;4.76;100.00
7824;BME280;3957;48.61947800;9.05303100;2023-11-21T03:05:28;95429.25;;;4.71;100.00
7824;BME280;3957;48.61947800;9.05303100;2023-11-21T03:06:30;95424.31;;;4.68;100.00
7824;BME280;3957;48.61947800;9.05303100;2023-11-21T03:07:31;95428.44;;;4.70;100.00
7824;BME280;3957;48.61947800;9.05303100;2023-11-21T03:08:33;95433.84;;;4.62;100.00
7824;BME280;3957;48.61947800;9.05303100;2023-11-21T03:09:35;95437.22;;;4.71;100.00
7824;BME280;3957;48.61947800;9.05303100;2023-11-21T03:10:37;95430.00;;;4.65;100.00
7824;BME280;3957;48.61947800;9.05303100;2023-11-21T03:11:39;95431.91;;;4.71;100.00
7824;BME280;3957;48.61947800;9.05303100;2023-11-21T03:12:40;95432.00;;;4.63;100.00
7824;BME280;3957;48.61947800;9.05303100;2023-11-21T03:13:42;95436.50;;;4.62;100.00
7824;BME280;3957;48.61947800;9.05303100;2023-11-21T03:14:44;95433.19;;;4.75;100.00
7824;BME280;3957;48.61947800;9.05303100;2023-11-21T03:15:45;95430.91;;;4.72;100.00
7824;BME280;3957;48.61947800;9.05303100;2023-11-21T03:16:48;95429.25;;;4.71;100.00
7824;BME280;3957;48.61947800;9.05303100;2023-11-21T03:17:50;95420.88;;;4.67;100.00
7824;BME280;3957;48.61947800;9.05303100;2023-11-21T03:18:52;95423.16;;;4.70;100.00
7824;BME280;3957;48.61947800;9.05303100;2023-11-21T03:19:54;95428.16;;;4.65;100.00
7824;BME280;3957;48.61947800;9.05303100;2023-11-21T03:20:55;95428.72;;;4.60;100.00
7824;BME280;3957;48.61947800;9.05303100;2023-11-21T03:21:57;95424.50;;;4.66;100.00
7824;BME280;3957;48.61947800;9.05303100;2023-11-21T03:22:59;95420.41;;;4.64;100.00
7824;BME280;3957;48.61947800;9.05303100;2023-11-21T03:24:01;95419.50;;;4.56;100.00
7824;BME280;3957;48.61947800;9.05303100;2023-11-21T03:25:03;95429.09;;;4.57;100.00
7824;BME280;3957;48.61947800;9.05303100;2023-11-21T03:26:04;95423.97;;;4.56;100.00
7824;BME280;3957;48.61947800;9.05303100;2023-11-21T03:27:07;95426.16;;;4.52;100.00
7824;BME280;3957;48.61947800;9.05303100;2023-11-21T03:28:09;95423.22;;;4.47;100.00
7824;BME280;3957;48.61947800;9.05303100;2023-11-21T03:29:10;95430.66;;;4.52;100.00
7824;BME280;3957;48.61947800;9.05303100;2023-11-21T03:30:12;95425.06;;;4.47;100.00
7824;BME280;3957;48.61947800;9.05303100;2023-11-21T03:31:13;95423.59;;;4.44;100.00
7824;BME280;3957;48.61947800;9.05303100;2023-11-21T03:32:18;95425.69;;;4.49;100.00
7824;BME280;3957;48.61947800;9.05303100;2023-11-21T03:33:20;95428.34;;;4.49;100.00
7824;BME280;3957;48.61947800;9.05303100;2023-11-21T03:34:26;95430.91;;;4.42;100.00
7824;BME280;3957;48.61947800;9.05303100;2023-11-21T03:35:29;95422.41;;;4.47;100.00
7824;BME280;3957;48.61947800;9.05303100;2023-11-21T03:36:30;95429.63;;;4.38;100.00
7824;BME280;3957;48.61947800;9.05303100;2023-11-21T03:37:32;95433.28;;;4.37;100.00
7824;BME280;3957;48.61947800;9.05303100;2023-11-21T03:38:33;95427.31;;;4.35;100.00
7824;BME280;3957;48.61947800;9.05303100;2023-11-21T03:39:34;95432.34;;;4.45;100.00
7824;BME280;3957;48.61947800;9.05303100;2023-11-21T03:40:36;95429.53;;;4.31;100.00
7824;BME280;3957;48.61947800;9.05303100;2023-11-21T03:41:38;95429.72;;;4.30;100.00
7824;BME280;3957;48.61947800;9.05303100;2023-11-21T03:42:40;95437.19;;;4.26;100.00
7824;BME280;3957;48.61947800;9.05303100;2023-11-21T03:43:42;95435.28;;;4.20;100.00
7824;BME280;3957;48.61947800;9.05303100;2023-11-21T03:44:47;95430.91;;;4.27;100.00
7824;BME280;3957;48.61947800;9.05303100;2023-11-21T03:45:49;95438.47;;;4.30;100.00
7824;BME280;3957;48.61947800;9.05303100;2023-11-21T03:46:51;95445.06;;;4.34;100.00
7824;BME280;3957;48.61947800;9.05303100;2023-11-21T03:47:52;95448.53;;;4.35;100.00
7824;BME280;3957;48.61947800;9.05303100;2023-11-21T03:48:54;95446.91;;;4.34;100.00
7824;BME280;3957;48.61947800;9.05303100;2023-11-21T03:49:57;95445.06;;;4.34;100.00
7824;BME280;3957;48.61947800;9.05303100;2023-11-21T03:50:58;95444.59;;;4.31;100.00
7824;BME280;3957;48.61947800;9.05303100;2023-11-21T03:52:00;95449.53;;;4.34;100.00
7824;BME280;3957;48.61947800;9.05303100;2023-11-21T03:53:02;95439.38;;;4.37;100.00
7824;BME280;3957;48.61947800;9.05303100;2023-11-21T03:54:05;95446.72;;;4.35;100.00
7824;BME280;3957;48.61947800;9.05303100;2023-11-21T03:55:06;95444.16;;;4.42;100.00
7824;BME280;3957;48.61947800;9.05303100;2023-11-21T03:56:08;95440.78;;;4.48;100.00
7824;BME280;3957;48.61947800;9.05303100;2023-11-21T03:57:11;95443.78;;;4.45;100.00
7824;BME280;3957;48.61947800;9.05303100;2023-11-21T03:58:13;95443.53;;;4.55;100.00
7824;BME280;3957;48.61947800;9.05303100;2023-11-21T03:59:14;95449.63;;;4.55;100.00
7824;BME280;3957;48.61947800;9.05303100;2023-11-21T04:00:16;95445.53;;;4.53;100.00
7824;BME280;3957;48.61947800;9.05303100;2023-11-21T04:01:20;95444.91;;;4.51;100.00
7824;BME280;3957;48.61947800;9.05303100;2023-11-21T04:02:23;95448.72;;;4.48;100.00
7824;BME280;3957;48.61947800;9.05303100;2023-11-21T04:03:27;95439.41;;;4.52;100.00
7824;BME280;3957;48.61947800;9.05303100;2023-11-21T04:04:28;95448.34;;;4.51;100.00
7824;BME280;3957;48.61947800;9.05303100;2023-11-21T04:05:30;95446.66;;;4.58;100.00
7824;BME280;3957;48.61947800;9.05303100;2023-11-21T04:06:32;95448.75;;;4.63;100.00
7824;BME280;3957;48.61947800;9.05303100;2023-11-21T04:07:34;95445.81;;;4.58;100.00
7824;BME280;3957;48.61947800;9.05303100;2023-11-21T04:08:36;95447.47;;;4.59;100.00
7824;BME280;3957;48.61947800;9.05303100;2023-11-21T04:09:37;95445.25;;;4.63;100.00
7824;BME280;3957;48.61947800;9.05303100;2023-11-21T04:10:39;95445.09;;;4.64;100.00
7824;BME280;3957;48.61947800;9.05303100;2023-11-21T04:11:41;95445.72;;;4.66;100.00
7824;BME280;3957;48.61947800;9.05303100;2023-11-21T04:12:44;95448.47;;;4.73;100.00
7824;BME280;3957;48.61947800;9.05303100;2023-11-21T04:13:46;95446.53;;;4.82;100.00
7824;BME280;3957;48.61947800;9.05303100;2023-11-21T04:14:48;95444.25;;;4.79;100.00
7824;BME280;3957;48.61947800;9.05303100;2023-11-21T04:15:50;95450.38;;;4.79;100.00
7824;BME280;3957;48.61947800;9.05303100;2023-11-21T04:16:51;95452.41;;;4.77;100.00
7824;BME280;3957;48.61947800;9.05303100;2023-11-21T04:17:53;95449.66;;;4.70;100.00
7824;BME280;3957;48.61947800;9.05303100;2023-11-21T04:18:54;95450.13;;;4.74;100.00
7824;BME280;3957;48.61947800;9.05303100;2023-11-21T04:19:56;95453.19;;;4.77;100.00
7824;BME280;3957;48.61947800;9.05303100;2023-11-21T04:20:58;95450.84;;;4.83;100.00
7824;BME280;3957;48.61947800;9.05303100;2023-11-21T04:21:59;95460.16;;;4.79;100.00
7824;BME280;3957;48.61947800;9.05303100;2023-11-21T04:23:01;95452.94;;;4.72;100.00
7824;BME280;3957;48.61947800;9.05303100;2023-11-21T04:24:02;95450.66;;;4.69;100.00
7824;BME280;3957;48.61947800;9.05303100;2023-11-21T04:25:04;95452.66;;;4.67;100.00
7824;BME280;3957;48.61947800;9.05303100;2023-11-21T04:26:06;95454.03;;;4.78;100.00
7824;BME280;3957;48.61947800;9.05303100;2023-11-21T04:27:07;95450.56;;;4.77;100.00
7824;BME280;3957;48.61947800;9.05303100;2023-11-21T04:28:09;95456.31;;;4.81;100.00
7824;BME280;3957;48.61947800;9.05303100;2023-11-21T04:29:10;95449.38;;;4.80;100.00
7824;BME280;3957;48.61947800;9.05303100;2023-11-21T04:30:13;95451.03;;;4.81;100.00
7824;BME280;3957;48.61947800;9.05303100;2023-11-21T04:31:15;95452.69;;;4.82;100.00
7824;BME280;3957;48.61947800;9.05303100;2023-11-21T04:32:16;95456.41;;;4.88;100.00
7824;BME280;3957;48.61947800;9.05303100;2023-11-21T04:33:18;95459.59;;;4.83;100.00
7824;BME280;3957;48.61947800;9.05303100;2023-11-21T04:34:19;95463.47;;;4.81;100.00
7824;BME280;3957;48.61947800;9.05303100;2023-11-21T04:35:21;95463.91;;;4.84;100.00
7824;BME280;3957;48.61947800;9.05303100;2023-11-21T04:36:23;95468.56;;;4.82;100.00
7824;BME280;3957;48.61947800;9.05303100;2023-11-21T04:37:24;95466.28;;;4.79;100.00
7824;BME280;3957;48.61947800;9.05303100;2023-11-21T04:38:26;95462.00;;;4.78;100.00
7824;BME280;3957;48.61947800;9.05303100;2023-11-21T04:39:27;95466.81;;;4.74;100.00
7824;BME280;3957;48.61947800;9.05303100;2023-11-21T04:40:29;95470.84;;;4.70;100.00
7824;BME280;3957;48.61947800;9.05303100;2023-11-21T04:41:30;95464.75;;;4.70;100.00
7824;BME280;3957;48.61947800;9.05303100;2023-11-21T04:42:34;95469.66;;;4.73;100.00
7824;BME280;3957;48.61947800;9.05303100;2023-11-21T04:43:37;95472.94;;;4.75;100.00
7824;BME280;3957;48.61947800;9.05303100;2023-11-21T04:44:38;95472.50;;;4.71;100.00
7824;BME280;3957;48.61947800;9.05303100;2023-11-21T04:45:42;95474.16;;;4.72;100.00
7824;BME280;3957;48.61947800;9.05303100;2023-11-21T04:46:43;95472.03;;;4.68;100.00
7824;BME280;3957;48.61947800;9.05303100;2023-11-21T04:47:45;95478.00;;;4.70;100.00
7824;BME280;3957;48.61947800;9.05303100;2023-11-21T04:48:47;95473.03;;;4.67;100.00
7824;BME280;3957;48.61947800;9.05303100;2023-11-21T04:49:48;95460.63;;;4.67;100.00
7824;BME280;3957;48.61947800;9.05303100;2023-11-21T04:50:50;95474.69;;;4.68;100.00
7824;BME280;3957;48.61947800;9.05303100;2023-11-21T04:51:52;95470.56;;;4.65;100.00
7824;BME280;3957;48.61947800;9.05303100;2023-11-21T04:52:54;95475.06;;;4.65;100.00
7824;BME280;3957;48.61947800;9.05303100;2023-11-21T04:53:55;95478.06;;;4.62;100.00
7824;BME280;3957;48.61947800;9.05303100;2023-11-21T04:54:57;95471.75;;;4.63;100.00
7824;BME280;3957;48.61947800;9.05303100;2023-11-21T04:56:00;95483.09;;;4.71;100.00
7824;BME280;3957;48.61947800;9.05303100;2023-11-21T04:57:02;95476.72;;;4.66;100.00